createdAt,value
2022-08-23T00:01:39.525Z,5.2
2022-08-23T00:03:39.873Z,5.1
2022-08-23T00:05:38.126Z,5
2022-08-23T00:07:39.638Z,5.3
2022-08-23T00:09:38.741Z,5
2022-08-23T00:11:42.641Z,4.9
2022-08-23T00:13:47.535Z,5.1
2022-08-23T00:15:39.875Z,4.8
2022-08-23T00:17:40.340Z,5.1
2022-08-23T00:19:41.069Z,5.2
2022-08-23T00:21:40.924Z,5.2
2022-08-23T00:23:41.329Z,5.1
2022-08-23T00:25:42.079Z,5.2
2022-08-23T00:27:42.189Z,4.9
2022-08-23T00:29:45.300Z,5.2
2022-08-23T00:31:43.362Z,5.2
2022-08-23T00:33:43.082Z,5.7
2022-08-23T00:35:43.460Z,5.5
2022-08-23T00:37:44.103Z,5.7
2022-08-23T00:39:44.880Z,5.3
2022-08-23T00:41:46.614Z,5.5
2022-08-23T00:43:44.945Z,5.5
2022-08-23T00:45:51.466Z,5.3
2022-08-23T00:47:46.339Z,5
2022-08-23T00:49:53.481Z,5.8
2022-08-23T00:51:53.001Z,5.6
2022-08-23T00:53:49.738Z,5.6
2022-08-23T00:55:50.382Z,5.5
2022-08-23T00:57:47.782Z,5.6
2022-08-23T00:59:47.969Z,5.2
2022-08-23T01:01:48.773Z,5.6
2022-08-23T01:03:59.116Z,6.1
2022-08-23T01:05:57.791Z,5.7
2022-08-23T01:07:53.206Z,5.8
2022-08-23T01:09:52.632Z,5.4
2022-08-23T01:11:55.430Z,6
2022-08-23T01:13:56.125Z,6.2
2022-08-23T01:15:56.737Z,5.9
2022-08-23T01:17:56.434Z,5.8
2022-08-23T01:19:56.079Z,6.6
2022-08-23T01:21:59.151Z,6.1
2022-08-23T01:23:55.703Z,5.8
2022-08-23T01:25:53.078Z,5.9
2022-08-23T01:27:53.147Z,6
2022-08-23T01:29:53.858Z,5.9
2022-08-23T01:31:53.710Z,6.1
2022-08-23T01:33:58.612Z,6.5
2022-08-23T01:36:00.029Z,6.8
2022-08-23T01:37:55.221Z,6.9
2022-08-23T01:39:56.280Z,6.5
2022-08-23T01:41:55.397Z,6.8
2022-08-23T01:43:58.855Z,6.7
2022-08-23T01:45:57.560Z,6.9
2022-08-23T01:47:57.765Z,7.5
2022-08-23T01:49:56.969Z,6.8
2022-08-23T01:51:57.189Z,7.5
2022-08-23T01:53:58.306Z,7.7
2022-08-23T01:55:58.611Z,7.9
2022-08-23T01:58:02.143Z,8.3
2022-08-23T01:59:59.100Z,8.3
2022-08-23T02:01:59.657Z,8.8
2022-08-23T02:04:05.043Z,8.8
2022-08-23T02:06:00.029Z,9
2022-08-23T02:08:00.447Z,9.3
2022-08-23T02:10:00.934Z,9.9
2022-08-23T02:12:01.832Z,10.4
2022-08-23T02:14:14.051Z,10.4
2022-08-23T02:16:02.716Z,11.7
2022-08-23T02:18:02.033Z,11.6
2022-08-23T02:20:04.195Z,11.7
2022-08-23T02:22:04.307Z,12.7
2022-08-23T02:24:06.253Z,13.4
2022-08-23T02:26:03.447Z,15.3
2022-08-23T02:28:04.920Z,14.4
2022-08-23T02:30:05.467Z,19
2022-08-23T02:32:04.799Z,18.2
2022-08-23T02:34:05.756Z,18.9
2022-08-23T02:36:05.599Z,19.1
2022-08-23T02:38:08.501Z,18.7
2022-08-23T02:40:06.994Z,21.2
2022-08-23T02:42:08.699Z,22.7
2022-08-23T02:44:08.481Z,20.5
2022-08-23T02:46:07.501Z,20.8
2022-08-23T02:48:15.206Z,22.7
2022-08-23T02:50:09.049Z,24.9
2022-08-23T02:52:08.403Z,24.1
2022-08-23T02:54:09.086Z,24
2022-08-23T02:56:17.071Z,23.3
2022-08-23T02:58:09.184Z,26.7
2022-08-23T03:00:13.071Z,30
2022-08-23T03:02:13.556Z,31.2
2022-08-23T03:04:11.023Z,32.8
2022-08-23T03:06:24.295Z,32.1
2022-08-23T03:08:17.186Z,38.1
2022-08-23T03:10:15.430Z,38.7
2022-08-23T03:12:15.383Z,36
2022-08-23T03:14:13.186Z,37.7
2022-08-23T03:16:17.836Z,35.7
2022-08-23T03:18:12.984Z,37.2
2022-08-23T03:20:13.526Z,38.6
2022-08-23T03:22:14.224Z,41.1
2022-08-23T03:24:14.124Z,45.7
2022-08-23T03:26:15.858Z,53.9
2022-08-23T03:28:17.744Z,53.7
2022-08-23T03:30:19.699Z,56.5
2022-08-23T03:32:15.690Z,58.9
2022-08-23T03:34:15.970Z,61.4
2022-08-23T03:36:16.395Z,63.3
2022-08-23T03:38:17.956Z,63.5
2022-08-23T03:40:17.512Z,65.1
2022-08-23T03:42:18.373Z,68.5
2022-08-23T03:44:18.186Z,68.5
2022-08-23T03:46:19.467Z,68.7
2022-08-23T03:48:19.720Z,69
2022-08-23T03:50:19.560Z,69.9
2022-08-23T03:52:19.894Z,71.3
2022-08-23T03:54:23.053Z,71.1
2022-08-23T03:56:23.531Z,73.5
2022-08-23T03:58:20.822Z,74.4
2022-08-23T04:00:23.790Z,76.7
2022-08-23T04:02:21.641Z,77.4
2022-08-23T04:04:37.234Z,79.3
2022-08-23T04:06:22.481Z,80.5
2022-08-23T04:08:31.845Z,88.6
2022-08-23T04:10:25.370Z,89.4
2022-08-23T04:12:24.000Z,92.8
2022-08-23T04:14:24.471Z,99.5
2022-08-23T04:16:24.782Z,100.5
2022-08-23T04:18:25.741Z,101.2
2022-08-23T04:20:30.228Z,102.6
2022-08-23T04:22:27.211Z,104.5
2022-08-23T04:24:26.931Z,103.2
2022-08-23T04:26:30.241Z,105.1
2022-08-23T04:28:28.295Z,100
2022-08-23T04:30:28.606Z,97.6
2022-08-23T04:32:29.095Z,99.1
2022-08-23T04:34:29.694Z,98.1
2022-08-23T04:36:34.653Z,101.2
2022-08-23T04:38:34.472Z,99.3
2022-08-23T04:40:31.501Z,103.2
2022-08-23T04:42:31.858Z,107.8
2022-08-23T04:44:34.395Z,109.5
2022-08-23T04:46:34.939Z,109.8
2022-08-23T04:48:33.865Z,112.2
2022-08-23T04:50:46.729Z,109.9
2022-08-23T04:52:34.565Z,112.4
2022-08-23T04:54:54.806Z,114.3
2022-08-23T04:56:36.217Z,111.4
2022-08-23T04:58:37.156Z,114.8
2022-08-23T05:00:37.318Z,111.3
2022-08-23T05:02:37.329Z,115.2
2022-08-23T05:04:38.115Z,113.5
2022-08-23T05:06:38.528Z,115.9
2022-08-23T05:08:39.293Z,112.2
2022-08-23T05:10:40.154Z,111.5
2022-08-23T05:12:40.802Z,109.5
2022-08-23T05:14:41.558Z,109
2022-08-23T05:16:43.212Z,109.9
2022-08-23T05:18:42.764Z,104.8
2022-08-23T05:20:42.965Z,105.8
2022-08-23T05:22:58.287Z,103.7
2022-08-23T05:24:44.152Z,104.2
2022-08-23T05:26:45.210Z,100.6
2022-08-23T05:28:49.809Z,98.7
2022-08-23T05:30:56.583Z,98.9
2022-08-23T05:32:46.656Z,97
2022-08-23T05:34:47.182Z,95.3
2022-08-23T05:36:55.834Z,95.9
2022-08-23T05:38:49.012Z,92
2022-08-23T05:40:50.449Z,89.5
2022-08-23T05:42:49.651Z,89.7
2022-08-23T05:44:50.665Z,89.6
2022-08-23T05:46:57.329Z,88.1
2022-08-23T05:48:53.291Z,84.4
2022-08-23T05:50:52.464Z,86.5
2022-08-23T05:52:53.063Z,84.9
2022-08-23T05:55:07.363Z,84.5
2022-08-23T05:56:54.200Z,88.6
2022-08-23T05:58:59.835Z,86
2022-08-23T06:00:56.180Z,84.4
2022-08-23T06:02:56.455Z,85
2022-08-23T06:04:57.539Z,86.8
2022-08-23T06:06:57.485Z,85.7
2022-08-23T06:08:58.216Z,84.2
2022-08-23T06:11:01.626Z,82.8
2022-08-23T06:13:01.403Z,83.2
2022-08-23T06:15:00.252Z,79.8
2022-08-23T06:17:01.323Z,81.9
2022-08-23T06:19:18.321Z,80.9
2022-08-23T06:21:13.735Z,77.7
2022-08-23T06:23:06.791Z,80.7
2022-08-23T06:25:17.931Z,78.9
2022-08-23T06:27:05.156Z,78.9
2022-08-23T06:29:08.917Z,78
2022-08-23T06:31:08.583Z,76.3
2022-08-23T06:33:05.800Z,79
2022-08-23T06:35:38.031Z,78
2022-08-23T06:37:25.105Z,77.8
2022-08-23T06:39:28.518Z,76.6
2022-08-23T06:41:15.866Z,77.3
2022-08-23T06:43:25.087Z,75.6
2022-08-23T06:45:15.243Z,73.5
2022-08-23T06:47:10.701Z,74.1
2022-08-23T06:49:11.371Z,74
2022-08-23T06:51:25.115Z,75.7
2022-08-23T06:53:17.775Z,74.5
2022-08-23T06:55:27.769Z,72.8
2022-08-23T06:57:25.269Z,70
2022-08-23T06:59:34.076Z,72.1
2022-08-23T07:01:45.590Z,69.7
2022-08-23T07:03:30.340Z,68.1
2022-08-23T07:05:25.408Z,68.1
2022-08-23T07:07:16.703Z,66.3
2022-08-23T07:09:17.806Z,63.7
2022-08-23T07:11:19.311Z,62.6
2022-08-23T07:13:18.967Z,63.1
2022-08-23T07:15:19.691Z,64.6
2022-08-23T07:17:19.928Z,61.2
2022-08-23T07:19:22.599Z,61.3
2022-08-23T07:21:21.660Z,58.7
2022-08-23T07:23:21.804Z,55.5
2022-08-23T07:25:28.028Z,54.3
2022-08-23T07:27:34.839Z,54.3
2022-08-23T07:29:24.350Z,54.6
2022-08-23T07:31:27.545Z,52.1
2022-08-23T07:33:39.883Z,55.1
2022-08-23T07:35:28.624Z,54.2
2022-08-23T07:37:26.391Z,57.8
2022-08-23T07:39:27.362Z,51.9
2022-08-23T07:41:31.046Z,52
2022-08-23T07:43:28.134Z,51.9
2022-08-23T07:45:32.453Z,49.2
2022-08-23T07:47:30.983Z,43.2
2022-08-23T07:49:32.409Z,41.6
2022-08-23T07:51:32.526Z,37.7
2022-08-23T07:53:37.523Z,45.1
2022-08-23T07:55:47.005Z,46.7
2022-08-23T07:57:50.325Z,44.8
2022-08-23T07:59:36.615Z,44.2
2022-08-23T08:01:34.864Z,46.6
2022-08-23T08:03:42.124Z,40.8
2022-08-23T08:05:35.727Z,38.5
2022-08-23T08:07:37.782Z,38.4
2022-08-23T08:09:36.612Z,37.3
2022-08-23T08:11:40.023Z,33.9
2022-08-23T08:13:39.452Z,39.7
2022-08-23T08:15:42.301Z,39.3
2022-08-23T08:17:39.177Z,37.5
2022-08-23T08:19:54.722Z,37.4
2022-08-23T08:21:53.214Z,38.3
2022-08-23T08:23:57.572Z,34.3
2022-08-23T08:25:42.240Z,33.7
2022-08-23T08:27:42.919Z,27.7
2022-08-23T08:29:43.575Z,27.6
2022-08-23T08:31:45.146Z,29.7
2022-08-23T08:33:46.195Z,30.1
2022-08-23T08:35:47.696Z,32.2
2022-08-23T08:37:46.280Z,29.1
2022-08-23T08:39:47.492Z,32.3
2022-08-23T08:42:04.841Z,33.4
2022-08-23T08:44:02.976Z,35.4
2022-08-23T08:45:59.794Z,32.3
2022-08-23T08:47:53.795Z,31.9
2022-08-23T08:49:56.305Z,29.7
2022-08-23T08:51:56.034Z,29.1
2022-08-23T08:54:00.411Z,30.1
2022-08-23T08:55:56.895Z,27.4
2022-08-23T08:57:55.023Z,26.5
2022-08-23T08:59:59.622Z,26.7
2022-08-23T09:02:00.830Z,30.6
2022-08-23T09:03:55.997Z,28.6
2022-08-23T09:06:01.717Z,29.5
2022-08-23T09:08:13.829Z,29.4
2022-08-23T09:10:10.186Z,29.3
2022-08-23T09:12:06.616Z,31.2
2022-08-23T09:14:15.869Z,31.1
2022-08-23T09:16:09.772Z,32
2022-08-23T09:18:07.185Z,34
2022-08-23T09:20:04.327Z,32.1
2022-08-23T09:22:04.969Z,32.3
2022-08-23T09:24:10.069Z,30.8
2022-08-23T09:26:11.111Z,29.4
2022-08-23T09:28:03.943Z,30.1
2022-08-23T09:30:04.913Z,30.2
2022-08-23T09:32:21.405Z,29.8
2022-08-23T09:34:19.347Z,29.5
2022-08-23T09:36:15.983Z,29.6
2022-08-23T09:38:17.302Z,29.3
2022-08-23T09:40:16.472Z,31.5
2022-08-23T09:42:26.880Z,33.6
2022-08-23T09:44:12.185Z,32.6
2022-08-23T09:46:10.400Z,31.7
2022-08-23T09:48:18.445Z,29.6
2022-08-23T09:50:22.533Z,26.3
2022-08-23T09:52:21.992Z,23
2022-08-23T09:54:19.391Z,27.3
2022-08-23T09:56:16.055Z,20.2
2022-08-23T09:58:19.963Z,17.7
2022-08-23T10:00:24.124Z,19.1
2022-08-23T10:02:23.106Z,18.4
2022-08-23T10:04:16.966Z,20.1
2022-08-23T10:06:31.273Z,16
2022-08-23T10:08:23.306Z,16.1
2022-08-23T10:10:24.192Z,16.2
2022-08-23T10:12:17.452Z,15.2
2022-08-23T10:14:20.667Z,15.1
2022-08-23T10:16:37.560Z,15.7
2022-08-23T10:18:34.763Z,14.4
2022-08-23T10:20:32.345Z,14
2022-08-23T10:22:36.084Z,15.2
2022-08-23T10:24:41.033Z,15.3
2022-08-23T10:26:27.368Z,15.7
2022-08-23T10:28:39.482Z,15
2022-08-23T10:30:33.166Z,14.9
2022-08-23T10:32:34.912Z,14.9
2022-08-23T10:34:39.738Z,15.9
2022-08-23T10:36:30.784Z,16.8
2022-08-23T10:38:36.694Z,14.1
2022-08-23T10:40:33.432Z,15.6
2022-08-23T10:42:41.404Z,13.8
2022-08-23T10:44:34.668Z,13.1
2022-08-23T10:46:30.465Z,13.2
2022-08-23T10:48:35.444Z,12.3
2022-08-23T10:50:41.121Z,12.9
2022-08-23T10:52:36.284Z,14.4
2022-08-23T10:54:39.843Z,14
2022-08-23T10:56:32.219Z,15
2022-08-23T10:58:39.665Z,15.6
2022-08-23T11:00:34.770Z,13.4
2022-08-23T11:02:51.931Z,13.2
2022-08-23T11:04:49.324Z,12.8
2022-08-23T11:06:45.769Z,12.6
2022-08-23T11:08:44.416Z,13.1
2022-08-23T11:10:56.334Z,13.2
2022-08-23T11:12:52.897Z,13.3
2022-08-23T11:14:42.005Z,14.6
2022-08-23T11:16:41.048Z,14
2022-08-23T11:18:42.652Z,14.5
2022-08-23T11:21:04.365Z,14
2022-08-23T11:23:09.797Z,13.6
2022-08-23T11:24:55.665Z,13.9
2022-08-23T11:27:06.244Z,13.2
2022-08-23T11:28:46.536Z,13.3
2022-08-23T11:30:47.540Z,13.2
2022-08-23T11:32:45.508Z,13.2
2022-08-23T11:34:49.610Z,12.3
2022-08-23T11:37:16.332Z,12.6
2022-08-23T11:39:03.176Z,12.5
2022-08-23T11:41:04.070Z,12.4
2022-08-23T11:42:51.469Z,12.3
2022-08-23T11:44:50.560Z,12.2
2022-08-23T11:47:00.877Z,12.7
2022-08-23T11:48:56.979Z,13.5
2022-08-23T11:51:07.239Z,12.7
2022-08-23T11:53:09.235Z,11.9
2022-08-23T11:55:06.376Z,11.7
2022-08-23T11:57:04.064Z,11.8
2022-08-23T11:59:08.693Z,12.1
2022-08-23T12:01:02.725Z,11.5
2022-08-23T12:03:00.248Z,13
2022-08-23T12:04:54.318Z,13.2
2022-08-23T12:06:56.506Z,11.6
2022-08-23T12:08:58.217Z,14.1
2022-08-23T12:11:05.169Z,12.2
2022-08-23T12:13:26.339Z,10.6
2022-08-23T12:14:59.605Z,11.9
2022-08-23T12:17:00.058Z,11.8
2022-08-23T12:19:03.509Z,12.1
2022-08-23T12:21:02.648Z,10.7
2022-08-23T12:23:06.683Z,11.1
2022-08-23T12:25:05.895Z,11
2022-08-23T12:27:09.346Z,11.6
2022-08-23T12:29:08.779Z,11.6
2022-08-23T12:31:13.511Z,11.5
2022-08-23T12:33:10.514Z,11.5
2022-08-23T12:35:25.659Z,12.4
2022-08-23T12:37:14.504Z,12.6
2022-08-23T12:39:07.424Z,13.2
2022-08-23T12:41:19.204Z,13.2
2022-08-23T12:43:09.360Z,12.9
2022-08-23T12:45:13.160Z,13.9
2022-08-23T12:47:12.852Z,13.2
2022-08-23T12:49:21.286Z,13.1
2022-08-23T12:51:11.930Z,13.3
2022-08-23T12:53:12.091Z,13.1
2022-08-23T12:55:14.175Z,13.3
2022-08-23T12:57:17.145Z,13.1
2022-08-23T12:59:31.769Z,13.9
2022-08-23T13:01:19.768Z,13.3
2022-08-23T13:03:17.405Z,12.5
2022-08-23T13:05:26.091Z,12.9
2022-08-23T13:07:20.440Z,12.8
2022-08-23T13:09:21.950Z,12.4
2022-08-23T13:11:19.995Z,13.4
2022-08-23T13:13:21.085Z,13
2022-08-23T13:15:41.127Z,13
2022-08-23T13:17:21.562Z,13.6
2022-08-23T13:19:24.480Z,11.9
2022-08-23T13:21:25.709Z,12.1
2022-08-23T13:23:28.013Z,11.4
2022-08-23T13:25:29.835Z,14.1
2022-08-23T13:27:23.691Z,11.7
2022-08-23T13:29:22.831Z,11.5
2022-08-23T13:31:22.102Z,12.2
2022-08-23T13:33:22.780Z,11.2
2022-08-23T13:35:30.202Z,12.6
2022-08-23T13:37:27.692Z,11.9
2022-08-23T13:39:25.031Z,12.4
2022-08-23T13:41:30.354Z,11.7
2022-08-23T13:43:31.117Z,12.1
2022-08-23T13:45:29.133Z,11.9
2022-08-23T13:47:28.483Z,11.5
2022-08-23T13:49:28.853Z,11.4
2022-08-23T13:51:31.907Z,11.7
2022-08-23T13:53:29.145Z,11.9
2022-08-23T13:55:30.776Z,11.6
2022-08-23T13:57:30.548Z,11.4
2022-08-23T13:59:33.624Z,11.9
2022-08-23T14:01:31.633Z,11.2
2022-08-23T14:03:32.375Z,11.1
2022-08-23T14:05:33.238Z,11.1
2022-08-23T14:07:33.877Z,11.1
2022-08-23T14:09:34.732Z,11.2
2022-08-23T14:11:35.220Z,11.2
2022-08-23T14:13:35.807Z,11.5
2022-08-23T14:17:40.711Z,11.5
2022-08-23T14:21:38.164Z,12.8
2022-08-23T14:23:38.550Z,11.9
2022-08-23T14:25:39.270Z,12.1
2022-08-23T14:27:41.822Z,13.9
2022-08-23T14:29:40.508Z,14.8
2022-08-23T14:31:41.123Z,16.6
2022-08-23T14:33:41.952Z,16.1
2022-08-23T14:35:42.397Z,16.3
2022-08-23T14:39:43.713Z,16.6
2022-08-23T14:41:44.291Z,15
2022-08-23T14:43:44.923Z,16.4
2022-08-23T14:45:45.630Z,16.6
2022-08-23T14:47:46.518Z,15.3
2022-08-23T14:49:49.028Z,15.1
2022-08-23T14:51:49.395Z,14.6
2022-08-23T14:53:48.175Z,14.4
2022-08-23T14:55:57.487Z,13.4
2022-08-23T14:57:49.567Z,14
2022-08-23T14:59:50.125Z,14.3
2022-08-23T15:01:52.672Z,14.8
2022-08-23T15:03:51.909Z,14.8
2022-08-23T15:05:52.693Z,17.3
2022-08-23T15:07:52.406Z,14
2022-08-23T15:09:53.107Z,14.9
2022-08-23T15:13:56.219Z,15.1
2022-08-23T15:15:55.897Z,14.8
2022-08-23T15:17:59.677Z,13.7
2022-08-23T15:19:56.033Z,14.6
2022-08-23T15:21:58.390Z,14.2
2022-08-23T15:23:57.454Z,15.5
2022-08-23T15:25:58.096Z,13.7
2022-08-23T15:27:59.309Z,12.7
2022-08-23T15:29:59.139Z,14.2
2022-08-23T15:31:59.804Z,14.2
2022-08-23T15:34:00.400Z,13.9
2022-08-23T15:36:00.945Z,14.3
2022-08-23T15:38:01.470Z,13.6
2022-08-23T15:40:03.733Z,13.3
2022-08-23T15:42:02.934Z,14
2022-08-23T15:44:03.463Z,13.8
2022-08-23T15:46:05.858Z,14.1
2022-08-23T15:48:11.489Z,14.3
2022-08-23T15:50:06.147Z,14.1
2022-08-23T15:52:05.739Z,15.3
2022-08-23T15:54:06.315Z,14.7
2022-08-23T15:56:10.156Z,15
2022-08-23T15:58:12.659Z,14.7
2022-08-23T16:00:12.635Z,14.6
2022-08-23T16:02:08.867Z,14.7
2022-08-23T16:04:10.089Z,14
2022-08-23T16:06:12.145Z,13.8
2022-08-23T16:08:16.858Z,12.9
2022-08-23T16:10:13.539Z,13.5
2022-08-23T16:12:11.877Z,13.8
2022-08-23T16:14:12.555Z,13.9
2022-08-23T16:16:17.962Z,15.2
2022-08-23T16:18:14.125Z,14.8
2022-08-23T16:20:14.205Z,13.8
2022-08-23T16:22:29.710Z,15
2022-08-23T16:24:15.229Z,15.5
2022-08-23T16:26:21.444Z,15.2
2022-08-23T16:28:16.661Z,16.3
2022-08-23T16:30:17.156Z,14.9
2022-08-23T16:32:17.604Z,15.5
2022-08-23T16:34:19.649Z,14.6
2022-08-23T16:36:18.702Z,14.3
2022-08-23T16:38:19.293Z,14.6
2022-08-23T16:40:20.582Z,14.4
2022-08-23T16:42:20.594Z,13.7
2022-08-23T16:44:21.020Z,13.5
2022-08-23T16:46:22.734Z,13.3
2022-08-23T16:48:22.151Z,13.3
2022-08-23T16:50:22.849Z,13.4
2022-08-23T16:52:25.920Z,14.2
2022-08-23T16:54:23.905Z,14.1
2022-08-23T16:56:24.468Z,14.9
2022-08-23T16:58:25.205Z,14.7
2022-08-23T17:00:25.938Z,14.2
2022-08-23T17:02:28.625Z,14.7
2022-08-23T17:04:30.531Z,14.3
2022-08-23T17:06:27.251Z,13.5
2022-08-23T17:08:27.863Z,13.6
2022-08-23T17:10:28.439Z,13.6
2022-08-23T17:12:29.885Z,14.6
2022-08-23T17:14:29.500Z,14.2
2022-08-23T17:16:30.075Z,14.9
2022-08-23T17:18:30.604Z,14.1
2022-08-23T17:20:34.973Z,13
2022-08-23T17:22:31.618Z,12.6
2022-08-23T17:24:32.398Z,13
2022-08-23T17:26:33.480Z,11.4
2022-08-23T17:28:33.482Z,12.8
2022-08-23T17:30:33.904Z,11.7
2022-08-23T17:32:34.405Z,15.5
2022-08-23T17:34:35.032Z,20
2022-08-23T17:36:42.111Z,13.7
2022-08-23T17:38:35.924Z,11.9
2022-08-23T17:40:39.849Z,10.7
2022-08-23T17:42:37.090Z,16.7
2022-08-23T17:44:37.540Z,15.2
2022-08-23T17:46:40.032Z,13.6
2022-08-23T17:48:38.617Z,16.9
2022-08-23T17:50:40.071Z,17.8
2022-08-23T17:52:39.610Z,17.1
2022-08-23T17:54:40.419Z,13.5
2022-08-23T17:56:41.262Z,12.8
2022-08-23T17:58:41.279Z,14.6
2022-08-23T18:00:41.644Z,12
2022-08-23T18:02:42.353Z,13.2
2022-08-23T18:04:42.771Z,12.8
2022-08-23T18:06:43.213Z,14.5
2022-08-23T18:08:44.247Z,14.5
2022-08-23T18:10:44.120Z,13.9
2022-08-23T18:12:44.579Z,16.4
2022-08-23T18:14:45.368Z,14.6
2022-08-23T18:16:45.941Z,16.2
2022-08-23T18:18:46.168Z,17.9
2022-08-23T18:20:46.658Z,16.6
2022-08-23T18:22:47.107Z,19.1
2022-08-23T18:24:47.568Z,19.5
2022-08-23T18:26:48.411Z,17.8
2022-08-23T18:28:48.635Z,19.9
2022-08-23T18:30:51.287Z,20.3
2022-08-23T18:32:49.526Z,19.1
2022-08-23T18:34:50.314Z,17.6
2022-08-23T18:36:50.680Z,18.4
2022-08-23T18:38:51.055Z,19.1
2022-08-23T18:40:51.540Z,18.4
2022-08-23T18:42:51.995Z,13.8
2022-08-23T18:44:52.500Z,18.4
2022-08-23T18:46:52.927Z,19.8
2022-08-23T18:48:53.929Z,19
2022-08-23T18:50:53.894Z,27.1
2022-08-23T18:52:54.393Z,26.9
2022-08-23T18:54:54.789Z,22.2
2022-08-23T18:56:55.326Z,30.3
2022-08-23T18:58:55.880Z,31.7
2022-08-23T19:00:56.555Z,27.2
2022-08-23T19:02:57.052Z,21.5
2022-08-23T19:04:57.261Z,17.8
2022-08-23T19:06:57.673Z,18
2022-08-23T19:08:58.432Z,15.9
2022-08-23T19:10:58.544Z,14.6
2022-08-23T19:12:59.538Z,14.8
2022-08-23T19:14:59.385Z,14.9
2022-08-23T19:17:01.158Z,15.6
2022-08-23T19:19:00.331Z,16.2
2022-08-23T19:21:02.834Z,15.6
2022-08-23T19:23:01.448Z,14.7
2022-08-23T19:25:01.540Z,16.6
2022-08-23T19:27:02.201Z,17.4
2022-08-23T19:29:06.677Z,14.7
2022-08-23T19:31:02.988Z,15.5
2022-08-23T19:33:03.809Z,15.7
2022-08-23T19:35:04.581Z,15.8
2022-08-23T19:37:04.325Z,15.4
2022-08-23T19:39:05.743Z,15.2
2022-08-23T19:41:05.132Z,14.6
2022-08-23T19:43:05.520Z,14.1
2022-08-23T19:45:07.493Z,14.6
2022-08-23T19:47:06.530Z,15.1
2022-08-23T19:49:08.176Z,14.6
2022-08-23T19:51:07.449Z,15.8
2022-08-23T19:53:08.035Z,14.1
2022-08-23T19:55:09.208Z,14
2022-08-23T19:57:08.418Z,13.9
2022-08-23T19:59:14.475Z,13.7
2022-08-23T20:01:09.339Z,13.9
2022-08-23T20:03:09.831Z,13.5
2022-08-23T20:05:10.252Z,13.5
2022-08-23T20:07:10.580Z,12.8
2022-08-23T20:09:11.127Z,14
2022-08-23T20:11:11.283Z,13.6
2022-08-23T20:13:11.684Z,14.5
2022-08-23T20:15:12.975Z,14.4
2022-08-23T20:17:12.431Z,14
2022-08-23T20:19:13.424Z,13.2
2022-08-23T20:21:13.268Z,12.7
2022-08-23T20:23:13.650Z,13.6
2022-08-23T20:25:14.714Z,13
2022-08-23T20:27:24.063Z,13.4
2022-08-23T20:29:17.439Z,13.2
2022-08-23T20:31:16.417Z,13.2
2022-08-23T20:33:15.718Z,12.7
2022-08-23T20:35:16.025Z,13.1
2022-08-23T20:37:16.398Z,13
2022-08-23T20:39:21.841Z,12.4
2022-08-23T20:41:17.231Z,12.6
2022-08-23T20:43:17.644Z,13
2022-08-23T20:45:18.259Z,13.6
2022-08-23T20:47:18.606Z,12.9
2022-08-23T20:49:19.560Z,13.6
2022-08-23T20:51:20.535Z,13.4
2022-08-23T20:53:19.515Z,13.9
2022-08-23T20:55:19.948Z,13.4
2022-08-23T20:57:20.507Z,13
2022-08-23T20:59:21.080Z,13
2022-08-23T21:01:21.568Z,13.2
2022-08-23T21:03:21.960Z,13.8
2022-08-23T21:05:22.014Z,14.2
2022-08-23T21:07:22.212Z,13.6
2022-08-23T21:09:27.461Z,13.5
2022-08-23T21:11:24.537Z,13.4
2022-08-23T21:13:23.291Z,13.5
2022-08-23T21:15:23.747Z,13.5
2022-08-23T21:17:24.063Z,12.6
2022-08-23T21:19:24.448Z,13.7
2022-08-23T21:21:25.743Z,13.6
2022-08-23T21:23:25.506Z,12.9
2022-08-23T21:25:25.536Z,13.4
2022-08-23T21:27:25.967Z,13.1
2022-08-23T21:29:26.354Z,13.5
2022-08-23T21:31:27.671Z,13.4
2022-08-23T21:33:27.155Z,12.7
2022-08-23T21:35:27.479Z,12.2
2022-08-23T21:37:28.559Z,12
2022-08-23T21:39:28.160Z,12.9
2022-08-23T21:41:33.504Z,12.7
2022-08-23T21:43:29.983Z,12.2
2022-08-23T21:45:29.289Z,12.8
2022-08-23T21:47:29.610Z,12.4
2022-08-23T21:49:29.986Z,11.9
2022-08-23T21:51:30.369Z,12.6
2022-08-23T21:53:30.755Z,12.4
2022-08-23T21:55:36.931Z,12.2
2022-08-23T21:57:31.554Z,12.3
2022-08-23T21:59:31.882Z,12.2
2022-08-23T22:01:33.142Z,12.5
2022-08-23T22:03:32.838Z,12
2022-08-23T22:05:37.411Z,11.9
2022-08-23T22:07:33.426Z,12.2
2022-08-23T22:09:33.678Z,12.1
2022-08-23T22:11:35.376Z,11.1
2022-08-23T22:13:35.220Z,10.8
2022-08-23T22:15:35.350Z,11.5
2022-08-23T22:17:35.146Z,11.6
2022-08-23T22:19:35.588Z,11.7
2022-08-23T22:21:36.107Z,12
2022-08-23T22:23:37.964Z,11.8
2022-08-23T22:25:36.636Z,12.1
2022-08-23T22:27:37.118Z,12.6
2022-08-23T22:29:37.449Z,12.4
2022-08-23T22:31:38.373Z,12.5
2022-08-23T22:33:38.472Z,12.6
2022-08-23T22:35:38.559Z,12.6
2022-08-23T22:37:49.522Z,11.8
2022-08-23T22:39:39.693Z,12.3
2022-08-23T22:41:39.657Z,12
2022-08-23T22:43:39.978Z,12
2022-08-23T22:45:48.220Z,11.7
2022-08-23T22:47:40.687Z,12
2022-08-23T22:49:41.092Z,11.4
2022-08-23T22:51:41.768Z,12.6
2022-08-23T22:53:44.815Z,11.6
2022-08-23T22:55:42.332Z,11.7
2022-08-23T22:57:42.480Z,12.4
2022-08-23T22:59:42.857Z,12
2022-08-23T23:01:46.249Z,12.7
2022-08-23T23:03:43.565Z,12
2022-08-23T23:05:44.397Z,12.4
2022-08-23T23:07:44.299Z,12.1
2022-08-23T23:09:44.681Z,12.5
2022-08-23T23:11:45.985Z,12.6
2022-08-23T23:13:46.045Z,12.2
2022-08-23T23:15:45.756Z,13
2022-08-23T23:17:46.134Z,12.6
2022-08-23T23:19:46.719Z,12.7
2022-08-23T23:21:49.493Z,12.4
2022-08-23T23:23:47.225Z,13.2
2022-08-23T23:25:48.859Z,13.4
2022-08-23T23:27:48.057Z,13.2
2022-08-23T23:29:48.253Z,12.2
2022-08-23T23:31:48.742Z,12.2
2022-08-23T23:33:49.038Z,12.2
2022-08-23T23:35:49.932Z,12.6
2022-08-23T23:37:50.610Z,13.3
2022-08-23T23:39:50.038Z,12.5
2022-08-23T23:41:50.984Z,13
2022-08-23T23:43:50.704Z,12.8
2022-08-23T23:45:51.121Z,12.4
2022-08-23T23:47:51.629Z,12.9
2022-08-23T23:49:51.776Z,12.7
2022-08-23T23:51:52.122Z,12.2
2022-08-23T23:53:52.891Z,11.6
2022-08-23T23:55:59.900Z,12.2
2022-08-23T23:57:54.788Z,12.5
2022-08-23T23:59:53.607Z,12.1
